sensor_id;sensor_type;location;lat;lon;timestamp;P1;durP1;ratioP1;P2;durP2;ratioP2
48268;SDS011;34088;52.232;5.196;2022-07-23T00:02:10;4.35;;;2.58;;
48268;SDS011;34088;52.232;5.196;2022-07-23T00:04:37;3.53;;;2.50;;
48268;SDS011;34088;52.232;5.196;2022-07-23T00:07:03;3.72;;;2.38;;
48268;SDS011;34088;52.232;5.196;2022-07-23T00:09:29;5.93;;;2.55;;
48268;SDS011;34088;52.232;5.196;2022-07-23T00:11:56;3.97;;;2.58;;
48268;SDS011;34088;52.232;5.196;2022-07-23T00:14:22;3.13;;;2.53;;
48268;SDS011;34088;52.232;5.196;2022-07-23T00:16:48;5.82;;;3.10;;
48268;SDS011;34088;52.232;5.196;2022-07-23T00:19:14;5.50;;;2.88;;
48268;SDS011;34088;52.232;5.196;2022-07-23T00:21:40;6.35;;;2.80;;
48268;SDS011;34088;52.232;5.196;2022-07-23T00:24:06;5.32;;;2.90;;
48268;SDS011;34088;52.232;5.196;2022-07-23T00:26:32;5.20;;;3.38;;
48268;SDS011;34088;52.232;5.196;2022-07-23T00:28:59;6.07;;;3.67;;
48268;SDS011;34088;52.232;5.196;2022-07-23T00:31:25;7.97;;;3.50;;
48268;SDS011;34088;52.232;5.196;2022-07-23T00:33:52;6.72;;;3.92;;
48268;SDS011;34088;52.232;5.196;2022-07-23T00:36:21;6.90;;;3.45;;
48268;SDS011;34088;52.232;5.196;2022-07-23T00:38:48;7.28;;;3.67;;
48268;SDS011;34088;52.232;5.196;2022-07-23T00:41:15;6.75;;;3.20;;
48268;SDS011;34088;52.232;5.196;2022-07-23T00:43:41;6.88;;;3.40;;
48268;SDS011;34088;52.232;5.196;2022-07-23T00:46:07;5.13;;;3.25;;
48268;SDS011;34088;52.232;5.196;2022-07-23T00:48:33;8.13;;;3.80;;
48268;SDS011;34088;52.232;5.196;2022-07-23T00:50:59;7.88;;;3.28;;
48268;SDS011;34088;52.232;5.196;2022-07-23T00:53:25;5.32;;;3.70;;
48268;SDS011;34088;52.232;5.196;2022-07-23T00:55:51;8.13;;;3.47;;
48268;SDS011;34088;52.232;5.196;2022-07-23T00:58:18;4.13;;;2.95;;
48268;SDS011;34088;52.232;5.196;2022-07-23T01:00:44;4.55;;;3.08;;
48268;SDS011;34088;52.232;5.196;2022-07-23T01:03:10;7.00;;;3.47;;
48268;SDS011;34088;52.232;5.196;2022-07-23T01:05:36;5.07;;;3.65;;
48268;SDS011;34088;52.232;5.196;2022-07-23T01:08:03;7.90;;;3.50;;
48268;SDS011;34088;52.232;5.196;2022-07-23T01:10:30;5.93;;;3.30;;
48268;SDS011;34088;52.232;5.196;2022-07-23T01:13:01;7.70;;;3.20;;
48268;SDS011;34088;52.232;5.196;2022-07-23T01:15:32;7.50;;;2.97;;
48268;SDS011;34088;52.232;5.196;2022-07-23T01:18:00;5.30;;;3.40;;
48268;SDS011;34088;52.232;5.196;2022-07-23T01:20:26;6.55;;;3.40;;
48268;SDS011;34088;52.232;5.196;2022-07-23T01:22:53;7.68;;;2.95;;
48268;SDS011;34088;52.232;5.196;2022-07-23T01:25:19;7.40;;;3.10;;
48268;SDS011;34088;52.232;5.196;2022-07-23T01:27:46;6.72;;;3.20;;
48268;SDS011;34088;52.232;5.196;2022-07-23T01:30:12;7.00;;;3.30;;
48268;SDS011;34088;52.232;5.196;2022-07-23T01:32:39;4.10;;;3.20;;
48268;SDS011;34088;52.232;5.196;2022-07-23T01:35:05;7.57;;;3.15;;
48268;SDS011;34088;52.232;5.196;2022-07-23T01:37:32;4.95;;;2.90;;
48268;SDS011;34088;52.232;5.196;2022-07-23T01:39:58;5.85;;;3.28;;
48268;SDS011;34088;52.232;5.196;2022-07-23T01:42:24;6.38;;;3.50;;
48268;SDS011;34088;52.232;5.196;2022-07-23T01:44:50;6.95;;;3.22;;
48268;SDS011;34088;52.232;5.196;2022-07-23T01:47:16;5.53;;;2.88;;
48268;SDS011;34088;52.232;5.196;2022-07-23T01:49:42;6.22;;;3.15;;
48268;SDS011;34088;52.232;5.196;2022-07-23T01:52:09;4.93;;;3.28;;
48268;SDS011;34088;52.232;5.196;2022-07-23T01:54:37;4.63;;;3.45;;
48268;SDS011;34088;52.232;5.196;2022-07-23T01:57:04;6.13;;;3.40;;
48268;SDS011;34088;52.232;5.196;2022-07-23T01:59:30;4.72;;;3.45;;
48268;SDS011;34088;52.232;5.196;2022-07-23T02:01:58;5.80;;;3.20;;
48268;SDS011;34088;52.232;5.196;2022-07-23T02:04:24;6.60;;;3.10;;
48268;SDS011;34088;52.232;5.196;2022-07-23T02:06:51;5.70;;;3.20;;
48268;SDS011;34088;52.232;5.196;2022-07-23T02:09:17;4.95;;;3.03;;
48268;SDS011;34088;52.232;5.196;2022-07-23T02:11:44;4.65;;;3.10;;
48268;SDS011;34088;52.232;5.196;2022-07-23T02:14:10;3.92;;;3.13;;
48268;SDS011;34088;52.232;5.196;2022-07-23T02:16:36;9.60;;;3.20;;
48268;SDS011;34088;52.232;5.196;2022-07-23T02:19:02;6.28;;;3.08;;
48268;SDS011;34088;52.232;5.196;2022-07-23T02:21:29;4.28;;;2.80;;
48268;SDS011;34088;52.232;5.196;2022-07-23T02:23:55;4.75;;;2.90;;
48268;SDS011;34088;52.232;5.196;2022-07-23T02:26:21;3.47;;;2.70;;
48268;SDS011;34088;52.232;5.196;2022-07-23T02:28:47;3.53;;;3.00;;
48268;SDS011;34088;52.232;5.196;2022-07-23T02:31:13;5.43;;;3.20;;
48268;SDS011;34088;52.232;5.196;2022-07-23T02:33:39;6.88;;;3.08;;
48268;SDS011;34088;52.232;5.196;2022-07-23T02:36:05;4.50;;;2.60;;
48268;SDS011;34088;52.232;5.196;2022-07-23T02:38:32;3.63;;;2.88;;
48268;SDS011;34088;52.232;5.196;2022-07-23T02:40:58;5.28;;;3.05;;
48268;SDS011;34088;52.232;5.196;2022-07-23T02:43:24;5.63;;;2.85;;
48268;SDS011;34088;52.232;5.196;2022-07-23T02:45:50;9.23;;;2.85;;
48268;SDS011;34088;52.232;5.196;2022-07-23T02:48:16;4.97;;;2.85;;
48268;SDS011;34088;52.232;5.196;2022-07-23T02:50:42;4.38;;;2.78;;
48268;SDS011;34088;52.232;5.196;2022-07-23T02:53:08;5.10;;;2.83;;
48268;SDS011;34088;52.232;5.196;2022-07-23T02:55:34;4.20;;;2.88;;
48268;SDS011;34088;52.232;5.196;2022-07-23T02:58:00;5.25;;;3.10;;
48268;SDS011;34088;52.232;5.196;2022-07-23T03:00:26;4.75;;;2.95;;
48268;SDS011;34088;52.232;5.196;2022-07-23T03:02:52;5.20;;;3.00;;
48268;SDS011;34088;52.232;5.196;2022-07-23T03:05:18;4.03;;;2.90;;
48268;SDS011;34088;52.232;5.196;2022-07-23T03:07:44;4.93;;;3.08;;
48268;SDS011;34088;52.232;5.196;2022-07-23T03:10:10;5.47;;;3.55;;
48268;SDS011;34088;52.232;5.196;2022-07-23T03:12:37;3.25;;;2.90;;
48268;SDS011;34088;52.232;5.196;2022-07-23T03:15:03;4.72;;;3.22;;
48268;SDS011;34088;52.232;5.196;2022-07-23T03:17:29;4.20;;;3.17;;
48268;SDS011;34088;52.232;5.196;2022-07-23T03:19:55;5.22;;;3.22;;
48268;SDS011;34088;52.232;5.196;2022-07-23T03:22:21;6.15;;;3.65;;
48268;SDS011;34088;52.232;5.196;2022-07-23T03:24:47;4.13;;;3.38;;
48268;SDS011;34088;52.232;5.196;2022-07-23T03:27:20;4.90;;;3.20;;
48268;SDS011;34088;52.232;5.196;2022-07-23T03:29:47;4.65;;;3.10;;
48268;SDS011;34088;52.232;5.196;2022-07-23T03:32:13;4.63;;;3.05;;
48268;SDS011;34088;52.232;5.196;2022-07-23T03:34:39;5.07;;;3.38;;
48268;SDS011;34088;52.232;5.196;2022-07-23T03:37:05;4.88;;;3.33;;
48268;SDS011;34088;52.232;5.196;2022-07-23T03:39:32;3.38;;;3.08;;
48268;SDS011;34088;52.232;5.196;2022-07-23T03:41:58;4.60;;;2.75;;
48268;SDS011;34088;52.232;5.196;2022-07-23T03:44:24;4.20;;;2.72;;
48268;SDS011;34088;52.232;5.196;2022-07-23T03:46:50;4.05;;;3.05;;
48268;SDS011;34088;52.232;5.196;2022-07-23T03:49:16;6.57;;;2.90;;
48268;SDS011;34088;52.232;5.196;2022-07-23T03:51:42;4.95;;;2.83;;
48268;SDS011;34088;52.232;5.196;2022-07-23T03:54:08;4.70;;;3.00;;
48268;SDS011;34088;52.232;5.196;2022-07-23T03:56:34;3.75;;;2.72;;
48268;SDS011;34088;52.232;5.196;2022-07-23T03:59:00;5.60;;;3.05;;
48268;SDS011;34088;52.232;5.196;2022-07-23T04:01:26;5.05;;;2.83;;
48268;SDS011;34088;52.232;5.196;2022-07-23T04:03:52;4.32;;;2.72;;
48268;SDS011;34088;52.232;5.196;2022-07-23T04:06:18;5.75;;;3.05;;
48268;SDS011;34088;52.232;5.196;2022-07-23T04:08:45;6.32;;;3.17;;
48268;SDS011;34088;52.232;5.196;2022-07-23T04:11:11;4.43;;;2.90;;
48268;SDS011;34088;52.232;5.196;2022-07-23T04:13:37;3.45;;;3.00;;
48268;SDS011;34088;52.232;5.196;2022-07-23T04:16:03;4.97;;;2.95;;
48268;SDS011;34088;52.232;5.196;2022-07-23T04:18:29;4.53;;;3.00;;
48268;SDS011;34088;52.232;5.196;2022-07-23T04:20:55;4.15;;;2.92;;
48268;SDS011;34088;52.232;5.196;2022-07-23T04:23:21;4.75;;;3.20;;
48268;SDS011;34088;52.232;5.196;2022-07-23T04:25:47;5.20;;;3.03;;
48268;SDS011;34088;52.232;5.196;2022-07-23T04:28:14;6.15;;;3.20;;
48268;SDS011;34088;52.232;5.196;2022-07-23T04:30:40;4.45;;;3.05;;
48268;SDS011;34088;52.232;5.196;2022-07-23T04:33:06;3.90;;;2.83;;
48268;SDS011;34088;52.232;5.196;2022-07-23T04:35:32;4.70;;;3.00;;
48268;SDS011;34088;52.232;5.196;2022-07-23T04:37:59;4.78;;;2.80;;
48268;SDS011;34088;52.232;5.196;2022-07-23T04:40:25;5.93;;;3.13;;
48268;SDS011;34088;52.232;5.196;2022-07-23T04:42:52;5.15;;;3.22;;
48268;SDS011;34088;52.232;5.196;2022-07-23T04:45:18;4.72;;;3.13;;
48268;SDS011;34088;52.232;5.196;2022-07-23T04:47:44;4.05;;;2.90;;
48268;SDS011;34088;52.232;5.196;2022-07-23T04:50:10;4.18;;;2.88;;
48268;SDS011;34088;52.232;5.196;2022-07-23T04:52:36;5.40;;;3.00;;
48268;SDS011;34088;52.232;5.196;2022-07-23T04:55:03;3.85;;;3.13;;
48268;SDS011;34088;52.232;5.196;2022-07-23T04:57:29;5.88;;;2.90;;
48268;SDS011;34088;52.232;5.196;2022-07-23T04:59:55;4.93;;;3.10;;
48268;SDS011;34088;52.232;5.196;2022-07-23T05:02:21;5.30;;;3.58;;
48268;SDS011;34088;52.232;5.196;2022-07-23T05:04:47;4.85;;;2.95;;
48268;SDS011;34088;52.232;5.196;2022-07-23T05:07:13;4.00;;;3.00;;
48268;SDS011;34088;52.232;5.196;2022-07-23T05:09:39;6.25;;;3.50;;
48268;SDS011;34088;52.232;5.196;2022-07-23T05:12:06;5.72;;;3.50;;
48268;SDS011;34088;52.232;5.196;2022-07-23T05:14:32;7.90;;;3.67;;
48268;SDS011;34088;52.232;5.196;2022-07-23T05:16:58;4.60;;;3.15;;
48268;SDS011;34088;52.232;5.196;2022-07-23T05:19:24;6.35;;;3.45;;
48268;SDS011;34088;52.232;5.196;2022-07-23T05:21:50;5.55;;;3.28;;
48268;SDS011;34088;52.232;5.196;2022-07-23T05:24:16;4.47;;;2.95;;
48268;SDS011;34088;52.232;5.196;2022-07-23T05:26:42;5.88;;;3.03;;
48268;SDS011;34088;52.232;5.196;2022-07-23T05:29:08;7.90;;;3.33;;
48268;SDS011;34088;52.232;5.196;2022-07-23T05:31:34;4.53;;;2.85;;
48268;SDS011;34088;52.232;5.196;2022-07-23T05:34:01;3.67;;;2.70;;
48268;SDS011;34088;52.232;5.196;2022-07-23T05:36:27;5.80;;;3.03;;
48268;SDS011;34088;52.232;5.196;2022-07-23T05:38:53;6.70;;;3.30;;
48268;SDS011;34088;52.232;5.196;2022-07-23T05:41:19;4.85;;;2.58;;
48268;SDS011;34088;52.232;5.196;2022-07-23T05:43:45;4.43;;;3.00;;
48268;SDS011;34088;52.232;5.196;2022-07-23T05:46:11;5.47;;;2.60;;
48268;SDS011;34088;52.232;5.196;2022-07-23T05:48:37;4.88;;;2.75;;
48268;SDS011;34088;52.232;5.196;2022-07-23T05:51:03;4.75;;;2.38;;
48268;SDS011;34088;52.232;5.196;2022-07-23T05:53:31;3.67;;;2.35;;
48268;SDS011;34088;52.232;5.196;2022-07-23T05:55:57;4.10;;;2.40;;
48268;SDS011;34088;52.232;5.196;2022-07-23T05:58:23;4.15;;;2.45;;
48268;SDS011;34088;52.232;5.196;2022-07-23T06:00:50;5.70;;;2.60;;
48268;SDS011;34088;52.232;5.196;2022-07-23T06:03:16;5.20;;;2.65;;
48268;SDS011;34088;52.232;5.196;2022-07-23T06:05:42;5.10;;;2.35;;
48268;SDS011;34088;52.232;5.196;2022-07-23T06:08:08;5.05;;;2.35;;
48268;SDS011;34088;52.232;5.196;2022-07-23T06:10:34;3.47;;;1.95;;
48268;SDS011;34088;52.232;5.196;2022-07-23T06:13:00;4.85;;;2.00;;
48268;SDS011;34088;52.232;5.196;2022-07-23T06:15:27;4.05;;;2.00;;
48268;SDS011;34088;52.232;5.196;2022-07-23T06:17:53;4.70;;;1.90;;
48268;SDS011;34088;52.232;5.196;2022-07-23T06:20:19;3.95;;;2.20;;
48268;SDS011;34088;52.232;5.196;2022-07-23T06:22:45;4.75;;;1.85;;
48268;SDS011;34088;52.232;5.196;2022-07-23T06:25:11;3.03;;;1.77;;
48268;SDS011;34088;52.232;5.196;2022-07-23T06:27:37;5.18;;;1.83;;
48268;SDS011;34088;52.232;5.196;2022-07-23T06:30:03;3.22;;;1.80;;
48268;SDS011;34088;52.232;5.196;2022-07-23T06:32:30;4.38;;;1.73;;
48268;SDS011;34088;52.232;5.196;2022-07-23T06:34:56;3.83;;;1.60;;
48268;SDS011;34088;52.232;5.196;2022-07-23T06:37:22;4.70;;;1.65;;
48268;SDS011;34088;52.232;5.196;2022-07-23T06:39:48;4.40;;;1.42;;
48268;SDS011;34088;52.232;5.196;2022-07-23T06:42:14;4.25;;;1.15;;
48268;SDS011;34088;52.232;5.196;2022-07-23T06:44:41;2.42;;;1.05;;
48268;SDS011;34088;52.232;5.196;2022-07-23T06:47:07;1.52;;;1.00;;
48268;SDS011;34088;52.232;5.196;2022-07-23T07:02:43;3.78;;;1.25;;
48268;SDS011;34088;52.232;5.196;2022-07-23T07:05:09;4.35;;;1.30;;
48268;SDS011;34088;52.232;5.196;2022-07-23T07:07:35;4.78;;;1.40;;
48268;SDS011;34088;52.232;5.196;2022-07-23T07:10:02;4.45;;;1.20;;
48268;SDS011;34088;52.232;5.196;2022-07-23T07:12:28;2.13;;;1.10;;
48268;SDS011;34088;52.232;5.196;2022-07-23T07:14:55;3.50;;;1.23;;
48268;SDS011;34088;52.232;5.196;2022-07-23T07:17:22;2.47;;;1.30;;
48268;SDS011;34088;52.232;5.196;2022-07-23T07:19:48;4.13;;;1.45;;
48268;SDS011;34088;52.232;5.196;2022-07-23T07:22:14;3.13;;;1.10;;
48268;SDS011;34088;52.232;5.196;2022-07-23T07:24:40;3.55;;;1.40;;
48268;SDS011;34088;52.232;5.196;2022-07-23T07:27:06;3.30;;;1.00;;
48268;SDS011;34088;52.232;5.196;2022-07-23T07:29:32;3.45;;;1.40;;
48268;SDS011;34088;52.232;5.196;2022-07-23T07:31:58;3.30;;;1.17;;
48268;SDS011;34088;52.232;5.196;2022-07-23T07:34:24;3.97;;;1.55;;
48268;SDS011;34088;52.232;5.196;2022-07-23T07:36:50;4.10;;;1.38;;
48268;SDS011;34088;52.232;5.196;2022-07-23T07:39:16;7.03;;;1.30;;
48268;SDS011;34088;52.232;5.196;2022-07-23T07:41:42;2.65;;;1.13;;
48268;SDS011;34088;52.232;5.196;2022-07-23T07:44:09;3.33;;;1.45;;
48268;SDS011;34088;52.232;5.196;2022-07-23T07:46:35;2.80;;;1.23;;
48268;SDS011;34088;52.232;5.196;2022-07-23T07:49:01;3.10;;;1.10;;
48268;SDS011;34088;52.232;5.196;2022-07-23T07:51:27;2.50;;;1.13;;
48268;SDS011;34088;52.232;5.196;2022-07-23T07:53:53;2.72;;;1.02;;
48268;SDS011;34088;52.232;5.196;2022-07-23T07:56:19;3.35;;;1.05;;
48268;SDS011;34088;52.232;5.196;2022-07-23T07:58:46;4.43;;;1.40;;
48268;SDS011;34088;52.232;5.196;2022-07-23T08:01:12;2.45;;;1.20;;
48268;SDS011;34088;52.232;5.196;2022-07-23T08:03:38;2.38;;;1.10;;
48268;SDS011;34088;52.232;5.196;2022-07-23T08:06:04;3.80;;;1.20;;
48268;SDS011;34088;52.232;5.196;2022-07-23T08:08:30;2.78;;;1.08;;
48268;SDS011;34088;52.232;5.196;2022-07-23T08:10:56;3.20;;;1.13;;
48268;SDS011;34088;52.232;5.196;2022-07-23T08:13:22;8.65;;;1.58;;
48268;SDS011;34088;52.232;5.196;2022-07-23T08:15:48;4.10;;;1.38;;
48268;SDS011;34088;52.232;5.196;2022-07-23T08:18:14;3.58;;;1.08;;
48268;SDS011;34088;52.232;5.196;2022-07-23T08:20:40;3.13;;;1.10;;
48268;SDS011;34088;52.232;5.196;2022-07-23T08:23:07;2.80;;;1.05;;
48268;SDS011;34088;52.232;5.196;2022-07-23T08:25:38;1.58;;;1.00;;
48268;SDS011;34088;52.232;5.196;2022-07-23T08:28:08;3.10;;;1.15;;
48268;SDS011;34088;52.232;5.196;2022-07-23T08:30:36;1.80;;;1.10;;
48268;SDS011;34088;52.232;5.196;2022-07-23T08:33:04;1.83;;;1.00;;
48268;SDS011;34088;52.232;5.196;2022-07-23T08:35:33;2.08;;;0.95;;
48268;SDS011;34088;52.232;5.196;2022-07-23T08:38:01;3.10;;;1.20;;
48268;SDS011;34088;52.232;5.196;2022-07-23T08:40:30;3.15;;;0.90;;
48268;SDS011;34088;52.232;5.196;2022-07-23T08:42:57;4.18;;;1.30;;
48268;SDS011;34088;52.232;5.196;2022-07-23T08:45:25;2.15;;;1.27;;
48268;SDS011;34088;52.232;5.196;2022-07-23T08:47:52;2.97;;;1.13;;
48268;SDS011;34088;52.232;5.196;2022-07-23T08:50:20;3.42;;;1.10;;
48268;SDS011;34088;52.232;5.196;2022-07-23T08:52:51;3.85;;;0.88;;
48268;SDS011;34088;52.232;5.196;2022-07-23T08:55:20;1.50;;;0.90;;
48268;SDS011;34088;52.232;5.196;2022-07-23T08:57:50;3.35;;;1.10;;
48268;SDS011;34088;52.232;5.196;2022-07-23T09:00:18;3.33;;;1.17;;
48268;SDS011;34088;52.232;5.196;2022-07-23T09:02:45;1.80;;;1.00;;
48268;SDS011;34088;52.232;5.196;2022-07-23T09:05:12;2.90;;;0.90;;
48268;SDS011;34088;52.232;5.196;2022-07-23T09:08:02;2.40;;;0.98;;
48268;SDS011;34088;52.232;5.196;2022-07-23T09:15:52;2.78;;;1.20;;
48268;SDS011;34088;52.232;5.196;2022-07-23T09:18:18;2.35;;;1.02;;
48268;SDS011;34088;52.232;5.196;2022-07-23T09:21:04;1.52;;;0.95;;
48268;SDS011;34088;52.232;5.196;2022-07-23T09:23:38;4.15;;;1.10;;
48268;SDS011;34088;52.232;5.196;2022-07-23T09:26:19;2.63;;;0.80;;
48268;SDS011;34088;52.232;5.196;2022-07-23T09:28:50;2.42;;;0.90;;
48268;SDS011;34088;52.232;5.196;2022-07-23T09:31:18;1.25;;;0.80;;
48268;SDS011;34088;52.232;5.196;2022-07-23T09:33:44;2.45;;;1.10;;
48268;SDS011;34088;52.232;5.196;2022-07-23T09:36:10;2.08;;;1.10;;
48268;SDS011;34088;52.232;5.196;2022-07-23T09:38:37;1.50;;;0.90;;
48268;SDS011;34088;52.232;5.196;2022-07-23T09:41:16;4.22;;;1.00;;
48268;SDS011;34088;52.232;5.196;2022-07-23T09:43:42;3.65;;;0.80;;
48268;SDS011;34088;52.232;5.196;2022-07-23T09:46:18;1.83;;;1.10;;
48268;SDS011;34088;52.232;5.196;2022-07-23T09:48:55;1.92;;;0.90;;
48268;SDS011;34088;52.232;5.196;2022-07-23T09:51:21;1.70;;;0.90;;
48268;SDS011;34088;52.232;5.196;2022-07-23T09:53:54;1.92;;;0.80;;
48268;SDS011;34088;52.232;5.196;2022-07-23T09:56:20;1.55;;;0.80;;
48268;SDS011;34088;52.232;5.196;2022-07-23T09:58:48;2.70;;;0.90;;
48268;SDS011;34088;52.232;5.196;2022-07-23T10:01:17;3.15;;;1.00;;
48268;SDS011;34088;52.232;5.196;2022-07-23T10:03:43;3.50;;;1.10;;
48268;SDS011;34088;52.232;5.196;2022-07-23T10:06:10;2.63;;;0.85;;
48268;SDS011;34088;52.232;5.196;2022-07-23T10:08:40;0.95;;;0.70;;
48268;SDS011;34088;52.232;5.196;2022-07-23T10:11:07;2.13;;;0.95;;
48268;SDS011;34088;52.232;5.196;2022-07-23T10:13:34;3.28;;;0.98;;
48268;SDS011;34088;52.232;5.196;2022-07-23T10:16:20;2.40;;;1.00;;
48268;SDS011;34088;52.232;5.196;2022-07-23T10:18:47;2.17;;;0.90;;
48268;SDS011;34088;52.232;5.196;2022-07-23T10:21:16;1.60;;;1.02;;
48268;SDS011;34088;52.232;5.196;2022-07-23T10:23:51;3.92;;;1.15;;
48268;SDS011;34088;52.232;5.196;2022-07-23T10:29:09;2.85;;;1.10;;
48268;SDS011;34088;52.232;5.196;2022-07-23T10:31:58;1.92;;;1.00;;
48268;SDS011;34088;52.232;5.196;2022-07-23T10:34:31;2.00;;;0.90;;
48268;SDS011;34088;52.232;5.196;2022-07-23T10:37:28;1.92;;;1.00;;
48268;SDS011;34088;52.232;5.196;2022-07-23T10:40:12;2.45;;;1.08;;
48268;SDS011;34088;52.232;5.196;2022-07-23T10:42:48;1.85;;;1.00;;
48268;SDS011;34088;52.232;5.196;2022-07-23T10:50:23;2.53;;;1.00;;
48268;SDS011;34088;52.232;5.196;2022-07-23T10:53:07;2.78;;;0.95;;
48268;SDS011;34088;52.232;5.196;2022-07-23T10:58:04;2.95;;;1.40;;
48268;SDS011;34088;52.232;5.196;2022-07-23T11:00:35;2.45;;;1.00;;
48268;SDS011;34088;52.232;5.196;2022-07-23T11:03:02;1.67;;;1.00;;
48268;SDS011;34088;52.232;5.196;2022-07-23T11:08:17;4.25;;;1.35;;
48268;SDS011;34088;52.232;5.196;2022-07-23T11:24:02;1.77;;;1.10;;
48268;SDS011;34088;52.232;5.196;2022-07-23T11:26:53;3.20;;;1.20;;
48268;SDS011;34088;52.232;5.196;2022-07-23T11:34:44;2.45;;;1.30;;
48268;SDS011;34088;52.232;5.196;2022-07-23T11:37:13;4.20;;;1.40;;
48268;SDS011;34088;52.232;5.196;2022-07-23T11:40:03;2.05;;;1.10;;
48268;SDS011;34088;52.232;5.196;2022-07-23T11:42:34;2.55;;;1.40;;
48268;SDS011;34088;52.232;5.196;2022-07-23T11:45:02;2.05;;;1.10;;
48268;SDS011;34088;52.232;5.196;2022-07-23T11:47:29;2.75;;;1.15;;
48268;SDS011;34088;52.232;5.196;2022-07-23T11:49:56;2.65;;;1.50;;
48268;SDS011;34088;52.232;5.196;2022-07-23T11:52:24;2.45;;;1.20;;
48268;SDS011;34088;52.232;5.196;2022-07-23T11:54:58;2.40;;;1.30;;
48268;SDS011;34088;52.232;5.196;2022-07-23T11:59:58;3.72;;;1.30;;
48268;SDS011;34088;52.232;5.196;2022-07-23T12:02:37;2.15;;;1.50;;
48268;SDS011;34088;52.232;5.196;2022-07-23T12:05:28;4.18;;;1.30;;
48268;SDS011;34088;52.232;5.196;2022-07-23T12:07:56;5.55;;;1.77;;
48268;SDS011;34088;52.232;5.196;2022-07-23T12:13:00;2.33;;;1.52;;
48268;SDS011;34088;52.232;5.196;2022-07-23T12:15:31;2.67;;;1.33;;
48268;SDS011;34088;52.232;5.196;2022-07-23T12:18:00;2.55;;;1.35;;
48268;SDS011;34088;52.232;5.196;2022-07-23T12:20:32;1.70;;;1.13;;
48268;SDS011;34088;52.232;5.196;2022-07-23T12:23:00;2.47;;;1.38;;
48268;SDS011;34088;52.232;5.196;2022-07-23T12:25:29;2.35;;;1.55;;
48268;SDS011;34088;52.232;5.196;2022-07-23T12:28:01;1.95;;;1.30;;
48268;SDS011;34088;52.232;5.196;2022-07-23T12:30:29;2.60;;;1.13;;
48268;SDS011;34088;52.232;5.196;2022-07-23T12:32:58;3.28;;;1.30;;
48268;SDS011;34088;52.232;5.196;2022-07-23T12:35:30;1.55;;;1.38;;
48268;SDS011;34088;52.232;5.196;2022-07-23T12:38:03;2.65;;;1.17;;
48268;SDS011;34088;52.232;5.196;2022-07-23T12:40:34;3.05;;;1.25;;
48268;SDS011;34088;52.232;5.196;2022-07-23T12:45:51;2.95;;;1.42;;
48268;SDS011;34088;52.232;5.196;2022-07-23T12:48:27;2.53;;;1.50;;
48268;SDS011;34088;52.232;5.196;2022-07-23T12:50:59;2.85;;;1.42;;
48268;SDS011;34088;52.232;5.196;2022-07-23T12:53:28;2.60;;;1.38;;
48268;SDS011;34088;52.232;5.196;2022-07-23T12:56:14;2.30;;;1.35;;
48268;SDS011;34088;52.232;5.196;2022-07-23T13:06:25;3.53;;;1.60;;
48268;SDS011;34088;52.232;5.196;2022-07-23T13:08:52;2.45;;;1.55;;
48268;SDS011;34088;52.232;5.196;2022-07-23T13:11:19;3.05;;;1.50;;
48268;SDS011;34088;52.232;5.196;2022-07-23T13:13:45;2.13;;;1.70;;
48268;SDS011;34088;52.232;5.196;2022-07-23T13:16:11;2.45;;;1.52;;
48268;SDS011;34088;52.232;5.196;2022-07-23T13:18:37;1.98;;;1.55;;
48268;SDS011;34088;52.232;5.196;2022-07-23T13:21:03;2.70;;;1.58;;
48268;SDS011;34088;52.232;5.196;2022-07-23T13:23:29;2.75;;;1.42;;
48268;SDS011;34088;52.232;5.196;2022-07-23T13:25:55;1.88;;;1.42;;
48268;SDS011;34088;52.232;5.196;2022-07-23T13:28:22;2.55;;;1.50;;
48268;SDS011;34088;52.232;5.196;2022-07-23T13:30:48;3.10;;;1.98;;
48268;SDS011;34088;52.232;5.196;2022-07-23T13:33:15;2.40;;;1.45;;
48268;SDS011;34088;52.232;5.196;2022-07-23T13:35:42;3.58;;;1.80;;
48268;SDS011;34088;52.232;5.196;2022-07-23T13:38:09;4.05;;;1.77;;
48268;SDS011;34088;52.232;5.196;2022-07-23T13:40:36;3.30;;;2.10;;
48268;SDS011;34088;52.232;5.196;2022-07-23T13:43:04;2.90;;;2.13;;
48268;SDS011;34088;52.232;5.196;2022-07-23T13:45:31;3.30;;;2.40;;
48268;SDS011;34088;52.232;5.196;2022-07-23T13:47:57;3.35;;;1.98;;
48268;SDS011;34088;52.232;5.196;2022-07-23T13:50:24;2.45;;;1.83;;
48268;SDS011;34088;52.232;5.196;2022-07-23T13:52:50;3.03;;;2.22;;
48268;SDS011;34088;52.232;5.196;2022-07-23T13:55:16;4.03;;;2.20;;
48268;SDS011;34088;52.232;5.196;2022-07-23T13:57:42;3.42;;;2.35;;
48268;SDS011;34088;52.232;5.196;2022-07-23T14:00:09;3.13;;;2.33;;
48268;SDS011;34088;52.232;5.196;2022-07-23T14:02:36;2.90;;;2.22;;
48268;SDS011;34088;52.232;5.196;2022-07-23T14:05:07;4.57;;;2.30;;
48268;SDS011;34088;52.232;5.196;2022-07-23T14:07:35;3.38;;;2.20;;
48268;SDS011;34088;52.232;5.196;2022-07-23T14:10:02;2.80;;;2.17;;
48268;SDS011;34088;52.232;5.196;2022-07-23T14:12:29;4.00;;;2.30;;
48268;SDS011;34088;52.232;5.196;2022-07-23T14:14:56;3.63;;;2.03;;
48268;SDS011;34088;52.232;5.196;2022-07-23T14:17:22;4.15;;;1.98;;
48268;SDS011;34088;52.232;5.196;2022-07-23T14:19:48;6.13;;;2.38;;
48268;SDS011;34088;52.232;5.196;2022-07-23T14:22:14;2.50;;;1.90;;
48268;SDS011;34088;52.232;5.196;2022-07-23T14:24:41;5.35;;;1.98;;
48268;SDS011;34088;52.232;5.196;2022-07-23T14:27:07;5.28;;;2.45;;
48268;SDS011;34088;52.232;5.196;2022-07-23T14:29:34;3.65;;;2.03;;
48268;SDS011;34088;52.232;5.196;2022-07-23T14:32:00;2.55;;;2.15;;
48268;SDS011;34088;52.232;5.196;2022-07-23T14:34:26;2.72;;;1.95;;
48268;SDS011;34088;52.232;5.196;2022-07-23T14:36:52;5.00;;;2.13;;
48268;SDS011;34088;52.232;5.196;2022-07-23T14:39:18;3.75;;;2.35;;
48268;SDS011;34088;52.232;5.196;2022-07-23T14:41:45;3.53;;;2.10;;
48268;SDS011;34088;52.232;5.196;2022-07-23T14:44:11;4.25;;;2.05;;
48268;SDS011;34088;52.232;5.196;2022-07-23T14:46:37;3.92;;;1.92;;
48268;SDS011;34088;52.232;5.196;2022-07-23T14:49:03;3.78;;;1.90;;
48268;SDS011;34088;52.232;5.196;2022-07-23T14:51:29;3.25;;;2.15;;
48268;SDS011;34088;52.232;5.196;2022-07-23T14:53:56;4.35;;;2.20;;
48268;SDS011;34088;52.232;5.196;2022-07-23T14:56:22;3.15;;;2.25;;
48268;SDS011;34088;52.232;5.196;2022-07-23T14:58:48;3.85;;;2.50;;
48268;SDS011;34088;52.232;5.196;2022-07-23T15:01:14;2.70;;;1.83;;
48268;SDS011;34088;52.232;5.196;2022-07-23T15:03:40;3.08;;;1.92;;
48268;SDS011;34088;52.232;5.196;2022-07-23T15:06:06;4.13;;;2.15;;
48268;SDS011;34088;52.232;5.196;2022-07-23T15:08:33;3.90;;;2.15;;
48268;SDS011;34088;52.232;5.196;2022-07-23T15:10:59;3.92;;;2.20;;
48268;SDS011;34088;52.232;5.196;2022-07-23T15:13:25;3.80;;;2.42;;
48268;SDS011;34088;52.232;5.196;2022-07-23T15:15:51;3.80;;;2.42;;
48268;SDS011;34088;52.232;5.196;2022-07-23T15:18:17;4.38;;;2.45;;
48268;SDS011;34088;52.232;5.196;2022-07-23T15:20:43;3.25;;;2.20;;
48268;SDS011;34088;52.232;5.196;2022-07-23T15:23:10;5.25;;;2.95;;
48268;SDS011;34088;52.232;5.196;2022-07-23T15:25:36;5.43;;;3.00;;
48268;SDS011;34088;52.232;5.196;2022-07-23T15:28:02;6.75;;;2.85;;
48268;SDS011;34088;52.232;5.196;2022-07-23T15:30:28;4.35;;;2.80;;
48268;SDS011;34088;52.232;5.196;2022-07-23T15:32:54;5.90;;;3.30;;
48268;SDS011;34088;52.232;5.196;2022-07-23T15:35:22;3.55;;;3.05;;
48268;SDS011;34088;52.232;5.196;2022-07-23T15:37:48;6.03;;;3.03;;
48268;SDS011;34088;52.232;5.196;2022-07-23T15:40:14;3.92;;;3.03;;
48268;SDS011;34088;52.232;5.196;2022-07-23T15:42:40;3.03;;;2.42;;
48268;SDS011;34088;52.232;5.196;2022-07-23T15:45:07;4.03;;;2.80;;
48268;SDS011;34088;52.232;5.196;2022-07-23T15:47:34;4.60;;;3.47;;
48268;SDS011;34088;52.232;5.196;2022-07-23T15:50:00;5.47;;;3.47;;
48268;SDS011;34088;52.232;5.196;2022-07-23T15:52:26;4.40;;;3.80;;
48268;SDS011;34088;52.232;5.196;2022-07-23T15:54:52;5.88;;;3.20;;
48268;SDS011;34088;52.232;5.196;2022-07-23T15:57:18;4.18;;;3.15;;